sensor_id;sensor_type;location;lat;lon;timestamp;P1;durP1;ratioP1;P2;durP2;ratioP2
23088;SDS011;11713;48.506;8.966;2023-11-21T00:01:59;8.63;;;3.23;;
23088;SDS011;11713;48.506;8.966;2023-11-21T00:04:24;6.50;;;3.00;;
23088;SDS011;11713;48.506;8.966;2023-11-21T00:06:50;6.30;;;3.20;;
23088;SDS011;11713;48.506;8.966;2023-11-21T00:09:16;5.37;;;3.10;;
23088;SDS011;11713;48.506;8.966;2023-11-21T00:11:43;4.93;;;2.97;;
23088;SDS011;11713;48.506;8.966;2023-11-21T00:14:09;3.30;;;2.80;;
23088;SDS011;11713;48.506;8.966;2023-11-21T00:16:40;5.20;;;3.03;;
23088;SDS011;11713;48.506;8.966;2023-11-21T00:19:06;5.53;;;2.60;;
23088;SDS011;11713;48.506;8.966;2023-11-21T00:21:32;5.90;;;3.00;;
23088;SDS011;11713;48.506;8.966;2023-11-21T00:23:58;6.63;;;2.90;;
23088;SDS011;11713;48.506;8.966;2023-11-21T00:26:24;7.20;;;3.03;;
23088;SDS011;11713;48.506;8.966;2023-11-21T00:29:00;5.00;;;2.23;;
23088;SDS011;11713;48.506;8.966;2023-11-21T00:31:25;4.97;;;1.60;;
23088;SDS011;11713;48.506;8.966;2023-11-21T00:33:51;5.33;;;1.70;;
23088;SDS011;11713;48.506;8.966;2023-11-21T00:36:17;5.40;;;1.60;;
23088;SDS011;11713;48.506;8.966;2023-11-21T00:38:44;3.73;;;1.67;;
23088;SDS011;11713;48.506;8.966;2023-11-21T00:41:10;3.70;;;1.60;;
23088;SDS011;11713;48.506;8.966;2023-11-21T00:43:36;5.03;;;1.83;;
23088;SDS011;11713;48.506;8.966;2023-11-21T00:46:08;5.07;;;1.60;;
23088;SDS011;11713;48.506;8.966;2023-11-21T00:48:34;6.37;;;1.70;;
23088;SDS011;11713;48.506;8.966;2023-11-21T00:51:00;4.03;;;1.60;;
23088;SDS011;11713;48.506;8.966;2023-11-21T00:53:26;3.07;;;1.30;;
23088;SDS011;11713;48.506;8.966;2023-11-21T00:55:51;4.40;;;1.40;;
23088;SDS011;11713;48.506;8.966;2023-11-21T00:58:22;4.97;;;1.47;;
23088;SDS011;11713;48.506;8.966;2023-11-21T01:00:49;5.00;;;1.47;;
23088;SDS011;11713;48.506;8.966;2023-11-21T01:03:15;8.10;;;1.83;;
23088;SDS011;11713;48.506;8.966;2023-11-21T01:05:41;5.80;;;1.33;;
23088;SDS011;11713;48.506;8.966;2023-11-21T01:08:07;3.00;;;1.30;;
23088;SDS011;11713;48.506;8.966;2023-11-21T01:10:33;2.50;;;1.27;;
23088;SDS011;11713;48.506;8.966;2023-11-21T01:12:59;3.80;;;1.50;;
23088;SDS011;11713;48.506;8.966;2023-11-21T01:15:25;2.87;;;1.10;;
23088;SDS011;11713;48.506;8.966;2023-11-21T01:17:51;2.63;;;1.20;;
23088;SDS011;11713;48.506;8.966;2023-11-21T01:20:19;3.40;;;1.43;;
23088;SDS011;11713;48.506;8.966;2023-11-21T01:22:46;4.30;;;1.20;;
23088;SDS011;11713;48.506;8.966;2023-11-21T01:25:14;2.77;;;1.50;;
23088;SDS011;11713;48.506;8.966;2023-11-21T01:27:42;3.00;;;1.30;;
23088;SDS011;11713;48.506;8.966;2023-11-21T01:30:08;4.30;;;1.30;;
23088;SDS011;11713;48.506;8.966;2023-11-21T01:32:37;3.10;;;1.40;;
23088;SDS011;11713;48.506;8.966;2023-11-21T01:35:04;2.50;;;1.37;;
23088;SDS011;11713;48.506;8.966;2023-11-21T01:37:32;2.73;;;1.40;;
23088;SDS011;11713;48.506;8.966;2023-11-21T01:40:01;2.53;;;1.07;;
23088;SDS011;11713;48.506;8.966;2023-11-21T01:42:27;1.60;;;1.00;;
23088;SDS011;11713;48.506;8.966;2023-11-21T01:44:54;2.63;;;1.10;;
23088;SDS011;11713;48.506;8.966;2023-11-21T01:47:20;1.90;;;1.03;;
23088;SDS011;11713;48.506;8.966;2023-11-21T01:49:46;1.77;;;0.93;;
23088;SDS011;11713;48.506;8.966;2023-11-21T01:52:13;2.37;;;0.80;;
23088;SDS011;11713;48.506;8.966;2023-11-21T01:54:40;2.97;;;1.00;;
23088;SDS011;11713;48.506;8.966;2023-11-21T01:57:07;1.37;;;0.90;;
23088;SDS011;11713;48.506;8.966;2023-11-21T01:59:37;2.00;;;0.73;;
23088;SDS011;11713;48.506;8.966;2023-11-21T02:02:06;2.47;;;0.87;;
23088;SDS011;11713;48.506;8.966;2023-11-21T02:04:34;3.63;;;1.13;;
23088;SDS011;11713;48.506;8.966;2023-11-21T02:07:03;3.03;;;1.00;;
23088;SDS011;11713;48.506;8.966;2023-11-21T02:09:34;1.40;;;0.80;;
23088;SDS011;11713;48.506;8.966;2023-11-21T02:12:03;1.10;;;0.80;;
23088;SDS011;11713;48.506;8.966;2023-11-21T02:14:30;2.03;;;1.10;;
23088;SDS011;11713;48.506;8.966;2023-11-21T02:16:57;2.10;;;0.70;;
23088;SDS011;11713;48.506;8.966;2023-11-21T02:19:23;1.27;;;0.83;;
23088;SDS011;11713;48.506;8.966;2023-11-21T02:21:51;1.03;;;0.60;;
23088;SDS011;11713;48.506;8.966;2023-11-21T02:24:21;1.33;;;0.77;;
23088;SDS011;11713;48.506;8.966;2023-11-21T02:26:47;2.60;;;0.60;;
23088;SDS011;11713;48.506;8.966;2023-11-21T02:29:19;1.83;;;0.80;;
23088;SDS011;11713;48.506;8.966;2023-11-21T02:31:53;0.60;;;0.53;;
23088;SDS011;11713;48.506;8.966;2023-11-21T02:34:20;1.50;;;0.73;;
23088;SDS011;11713;48.506;8.966;2023-11-21T02:36:48;1.53;;;0.73;;
23088;SDS011;11713;48.506;8.966;2023-11-21T02:39:17;1.03;;;0.67;;
23088;SDS011;11713;48.506;8.966;2023-11-21T02:41:43;0.80;;;0.70;;
23088;SDS011;11713;48.506;8.966;2023-11-21T02:44:09;1.10;;;0.60;;
23088;SDS011;11713;48.506;8.966;2023-11-21T02:46:35;2.63;;;0.70;;
23088;SDS011;11713;48.506;8.966;2023-11-21T02:49:05;3.47;;;2.10;;
23088;SDS011;11713;48.506;8.966;2023-11-21T02:51:32;1.17;;;0.80;;
23088;SDS011;11713;48.506;8.966;2023-11-21T02:53:58;1.80;;;0.53;;
23088;SDS011;11713;48.506;8.966;2023-11-21T02:56:27;0.83;;;0.60;;
23088;SDS011;11713;48.506;8.966;2023-11-21T02:58:57;1.83;;;0.70;;
23088;SDS011;11713;48.506;8.966;2023-11-21T03:01:25;1.17;;;0.60;;
23088;SDS011;11713;48.506;8.966;2023-11-21T03:03:51;2.20;;;0.70;;
23088;SDS011;11713;48.506;8.966;2023-11-21T03:06:20;1.40;;;0.70;;
23088;SDS011;11713;48.506;8.966;2023-11-21T03:08:46;0.50;;;0.50;;
23088;SDS011;11713;48.506;8.966;2023-11-21T03:11:13;2.23;;;0.70;;
23088;SDS011;11713;48.506;8.966;2023-11-21T03:13:39;2.80;;;1.03;;
23088;SDS011;11713;48.506;8.966;2023-11-21T03:16:09;0.97;;;0.80;;
23088;SDS011;11713;48.506;8.966;2023-11-21T03:18:39;0.87;;;0.50;;
23088;SDS011;11713;48.506;8.966;2023-11-21T03:21:05;1.27;;;0.80;;
23088;SDS011;11713;48.506;8.966;2023-11-21T03:23:34;0.80;;;0.60;;
23088;SDS011;11713;48.506;8.966;2023-11-21T03:26:02;1.40;;;0.50;;
23088;SDS011;11713;48.506;8.966;2023-11-21T03:28:29;1.07;;;0.60;;
23088;SDS011;11713;48.506;8.966;2023-11-21T03:30:57;0.60;;;0.60;;
23088;SDS011;11713;48.506;8.966;2023-11-21T03:33:23;1.33;;;0.60;;
23088;SDS011;11713;48.506;8.966;2023-11-21T03:35:50;1.67;;;0.67;;
23088;SDS011;11713;48.506;8.966;2023-11-21T03:38:16;0.80;;;0.50;;
23088;SDS011;11713;48.506;8.966;2023-11-21T03:40:42;2.30;;;0.60;;
23088;SDS011;11713;48.506;8.966;2023-11-21T03:43:08;1.07;;;0.60;;
23088;SDS011;11713;48.506;8.966;2023-11-21T03:45:33;3.30;;;0.80;;
23088;SDS011;11713;48.506;8.966;2023-11-21T03:47:59;1.40;;;0.53;;
23088;SDS011;11713;48.506;8.966;2023-11-21T03:50:30;1.33;;;0.80;;
23088;SDS011;11713;48.506;8.966;2023-11-21T03:52:56;1.40;;;0.50;;
23088;SDS011;11713;48.506;8.966;2023-11-21T03:55:22;2.13;;;0.77;;
23088;SDS011;11713;48.506;8.966;2023-11-21T03:57:50;0.87;;;0.70;;
23088;SDS011;11713;48.506;8.966;2023-11-21T04:00:18;1.50;;;0.50;;
23088;SDS011;11713;48.506;8.966;2023-11-21T04:02:47;1.43;;;0.70;;
23088;SDS011;11713;48.506;8.966;2023-11-21T04:05:13;1.07;;;0.60;;
23088;SDS011;11713;48.506;8.966;2023-11-21T04:07:39;0.50;;;0.50;;
23088;SDS011;11713;48.506;8.966;2023-11-21T04:10:06;1.13;;;0.60;;
23088;SDS011;11713;48.506;8.966;2023-11-21T04:12:34;1.07;;;0.50;;
23088;SDS011;11713;48.506;8.966;2023-11-21T04:15:00;1.20;;;0.93;;
23088;SDS011;11713;48.506;8.966;2023-11-21T04:17:26;2.77;;;0.67;;
23088;SDS011;11713;48.506;8.966;2023-11-21T04:19:52;0.83;;;0.53;;
23088;SDS011;11713;48.506;8.966;2023-11-21T04:22:18;1.00;;;0.57;;
23088;SDS011;11713;48.506;8.966;2023-11-21T04:24:44;1.23;;;0.67;;
23088;SDS011;11713;48.506;8.966;2023-11-21T04:27:09;0.80;;;0.60;;
23088;SDS011;11713;48.506;8.966;2023-11-21T04:29:35;1.47;;;0.60;;
23088;SDS011;11713;48.506;8.966;2023-11-21T04:32:01;2.00;;;0.60;;
23088;SDS011;11713;48.506;8.966;2023-11-21T04:34:28;0.70;;;0.60;;
23088;SDS011;11713;48.506;8.966;2023-11-21T04:36:56;0.50;;;0.50;;
23088;SDS011;11713;48.506;8.966;2023-11-21T04:39:22;15.43;;;10.43;;
23088;SDS011;11713;48.506;8.966;2023-11-21T04:41:49;14.03;;;8.97;;
23088;SDS011;11713;48.506;8.966;2023-11-21T04:44:15;10.00;;;6.70;;
23088;SDS011;11713;48.506;8.966;2023-11-21T04:46:44;6.07;;;4.20;;
23088;SDS011;11713;48.506;8.966;2023-11-21T04:49:13;3.80;;;2.30;;
23088;SDS011;11713;48.506;8.966;2023-11-21T04:51:40;2.50;;;1.50;;
23088;SDS011;11713;48.506;8.966;2023-11-21T04:54:15;2.90;;;1.73;;
23088;SDS011;11713;48.506;8.966;2023-11-21T04:56:41;5.10;;;3.80;;
23088;SDS011;11713;48.506;8.966;2023-11-21T04:59:08;4.33;;;2.03;;
23088;SDS011;11713;48.506;8.966;2023-11-21T05:01:34;1.37;;;0.97;;
23088;SDS011;11713;48.506;8.966;2023-11-21T05:04:01;1.17;;;0.90;;
23088;SDS011;11713;48.506;8.966;2023-11-21T05:06:27;1.90;;;1.30;;
23088;SDS011;11713;48.506;8.966;2023-11-21T05:08:53;1.87;;;1.27;;
23088;SDS011;11713;48.506;8.966;2023-11-21T05:11:24;0.67;;;0.67;;
23088;SDS011;11713;48.506;8.966;2023-11-21T05:13:50;1.93;;;0.73;;
23088;SDS011;11713;48.506;8.966;2023-11-21T05:16:16;1.93;;;0.80;;
23088;SDS011;11713;48.506;8.966;2023-11-21T05:18:42;0.87;;;0.60;;
23088;SDS011;11713;48.506;8.966;2023-11-21T05:21:08;1.93;;;0.70;;
23088;SDS011;11713;48.506;8.966;2023-11-21T05:23:34;1.63;;;0.77;;
23088;SDS011;11713;48.506;8.966;2023-11-21T05:26:00;1.50;;;0.70;;
23088;SDS011;11713;48.506;8.966;2023-11-21T05:28:26;0.70;;;0.70;;
23088;SDS011;11713;48.506;8.966;2023-11-21T05:30:52;0.63;;;0.63;;
23088;SDS011;11713;48.506;8.966;2023-11-21T05:33:18;1.60;;;0.50;;
23088;SDS011;11713;48.506;8.966;2023-11-21T05:35:44;1.07;;;0.67;;
23088;SDS011;11713;48.506;8.966;2023-11-21T05:38:10;0.73;;;0.57;;
23088;SDS011;11713;48.506;8.966;2023-11-21T05:40:36;0.53;;;0.53;;
23088;SDS011;11713;48.506;8.966;2023-11-21T05:43:02;1.73;;;0.67;;
23088;SDS011;11713;48.506;8.966;2023-11-21T05:45:30;0.87;;;0.70;;
23088;SDS011;11713;48.506;8.966;2023-11-21T05:47:57;1.60;;;0.50;;
23088;SDS011;11713;48.506;8.966;2023-11-21T05:50:24;0.90;;;0.60;;
23088;SDS011;11713;48.506;8.966;2023-11-21T05:52:50;1.47;;;0.67;;
23088;SDS011;11713;48.506;8.966;2023-11-21T05:55:16;1.93;;;1.00;;
23088;SDS011;11713;48.506;8.966;2023-11-21T05:57:43;2.90;;;0.87;;
23088;SDS011;11713;48.506;8.966;2023-11-21T06:00:10;0.93;;;0.80;;
23088;SDS011;11713;48.506;8.966;2023-11-21T06:02:47;1.33;;;0.90;;
23088;SDS011;11713;48.506;8.966;2023-11-21T06:05:17;0.93;;;0.90;;
23088;SDS011;11713;48.506;8.966;2023-11-21T06:07:43;5.23;;;3.87;;
23088;SDS011;11713;48.506;8.966;2023-11-21T06:10:10;7.13;;;4.77;;
23088;SDS011;11713;48.506;8.966;2023-11-21T06:12:38;9.40;;;5.30;;
23088;SDS011;11713;48.506;8.966;2023-11-21T06:15:05;8.80;;;5.00;;
23088;SDS011;11713;48.506;8.966;2023-11-21T06:17:34;9.40;;;5.00;;
23088;SDS011;11713;48.506;8.966;2023-11-21T06:20:19;19.03;;;10.73;;
23088;SDS011;11713;48.506;8.966;2023-11-21T06:22:46;5.67;;;2.97;;
23088;SDS011;11713;48.506;8.966;2023-11-21T06:25:13;2.87;;;1.87;;
23088;SDS011;11713;48.506;8.966;2023-11-21T06:30:08;2.53;;;1.70;;
23088;SDS011;11713;48.506;8.966;2023-11-21T06:32:38;2.70;;;1.47;;
23088;SDS011;11713;48.506;8.966;2023-11-21T06:35:10;1.93;;;0.90;;
23088;SDS011;11713;48.506;8.966;2023-11-21T06:37:37;1.93;;;0.90;;
23088;SDS011;11713;48.506;8.966;2023-11-21T06:40:03;1.37;;;0.80;;
23088;SDS011;11713;48.506;8.966;2023-11-21T06:42:30;0.90;;;0.80;;
23088;SDS011;11713;48.506;8.966;2023-11-21T06:44:56;3.63;;;0.70;;
23088;SDS011;11713;48.506;8.966;2023-11-21T06:47:23;0.97;;;0.87;;
23088;SDS011;11713;48.506;8.966;2023-11-21T06:49:53;2.23;;;2.03;;
23088;SDS011;11713;48.506;8.966;2023-11-21T06:52:19;3.80;;;3.30;;
23088;SDS011;11713;48.506;8.966;2023-11-21T06:54:45;4.10;;;3.30;;
23088;SDS011;11713;48.506;8.966;2023-11-21T06:57:14;1.50;;;1.40;;
23088;SDS011;11713;48.506;8.966;2023-11-21T06:59:41;1.90;;;1.70;;
23088;SDS011;11713;48.506;8.966;2023-11-21T07:02:07;1.93;;;1.83;;
23088;SDS011;11713;48.506;8.966;2023-11-21T07:04:33;2.90;;;2.60;;
23088;SDS011;11713;48.506;8.966;2023-11-21T07:06:59;3.00;;;2.50;;
23088;SDS011;11713;48.506;8.966;2023-11-21T07:09:25;2.53;;;2.33;;
23088;SDS011;11713;48.506;8.966;2023-11-21T07:11:51;2.60;;;1.97;;
23088;SDS011;11713;48.506;8.966;2023-11-21T07:14:17;2.70;;;1.90;;
23088;SDS011;11713;48.506;8.966;2023-11-21T07:16:45;1.90;;;1.70;;
23088;SDS011;11713;48.506;8.966;2023-11-21T07:19:11;2.07;;;1.83;;
23088;SDS011;11713;48.506;8.966;2023-11-21T07:21:37;1.50;;;1.30;;
23088;SDS011;11713;48.506;8.966;2023-11-21T07:24:07;1.90;;;1.53;;
23088;SDS011;11713;48.506;8.966;2023-11-21T07:26:34;3.50;;;1.77;;
23088;SDS011;11713;48.506;8.966;2023-11-21T07:29:01;2.40;;;1.60;;
23088;SDS011;11713;48.506;8.966;2023-11-21T07:31:28;11.27;;;2.10;;
23088;SDS011;11713;48.506;8.966;2023-11-21T07:33:54;2.90;;;1.60;;
23088;SDS011;11713;48.506;8.966;2023-11-21T07:36:23;3.27;;;1.77;;
23088;SDS011;11713;48.506;8.966;2023-11-21T07:38:49;7.60;;;5.47;;
23088;SDS011;11713;48.506;8.966;2023-11-21T07:41:15;6.00;;;4.40;;
23088;SDS011;11713;48.506;8.966;2023-11-21T07:43:43;3.90;;;3.13;;
23088;SDS011;11713;48.506;8.966;2023-11-21T07:46:12;2.80;;;1.80;;
23088;SDS011;11713;48.506;8.966;2023-11-21T07:48:39;3.43;;;1.40;;
23088;SDS011;11713;48.506;8.966;2023-11-21T07:51:06;3.27;;;1.30;;
23088;SDS011;11713;48.506;8.966;2023-11-21T07:53:32;2.47;;;1.37;;
23088;SDS011;11713;48.506;8.966;2023-11-21T07:55:58;2.60;;;1.00;;
23088;SDS011;11713;48.506;8.966;2023-11-21T07:58:28;2.63;;;1.20;;
23088;SDS011;11713;48.506;8.966;2023-11-21T08:00:54;2.00;;;1.50;;
23088;SDS011;11713;48.506;8.966;2023-11-21T08:03:20;2.07;;;1.50;;
23088;SDS011;11713;48.506;8.966;2023-11-21T08:05:46;4.70;;;2.10;;
23088;SDS011;11713;48.506;8.966;2023-11-21T08:08:12;2.80;;;1.93;;
23088;SDS011;11713;48.506;8.966;2023-11-21T08:10:38;2.83;;;2.13;;
23088;SDS011;11713;48.506;8.966;2023-11-21T08:13:07;2.33;;;1.47;;
23088;SDS011;11713;48.506;8.966;2023-11-21T08:15:34;3.67;;;1.40;;
23088;SDS011;11713;48.506;8.966;2023-11-21T08:18:02;4.30;;;2.20;;
23088;SDS011;11713;48.506;8.966;2023-11-21T08:20:28;1.50;;;1.30;;
23088;SDS011;11713;48.506;8.966;2023-11-21T08:22:54;3.07;;;1.60;;
23088;SDS011;11713;48.506;8.966;2023-11-21T08:25:22;3.43;;;2.10;;
23088;SDS011;11713;48.506;8.966;2023-11-21T08:27:47;4.43;;;2.20;;
23088;SDS011;11713;48.506;8.966;2023-11-21T08:30:14;2.20;;;1.90;;
23088;SDS011;11713;48.506;8.966;2023-11-21T08:32:42;1.83;;;1.33;;
23088;SDS011;11713;48.506;8.966;2023-11-21T08:35:08;2.90;;;1.50;;
23088;SDS011;11713;48.506;8.966;2023-11-21T08:37:34;3.40;;;2.23;;
23088;SDS011;11713;48.506;8.966;2023-11-21T08:40:04;2.97;;;1.70;;
23088;SDS011;11713;48.506;8.966;2023-11-21T08:42:34;4.90;;;1.77;;
23088;SDS011;11713;48.506;8.966;2023-11-21T08:45:01;2.67;;;1.40;;
23088;SDS011;11713;48.506;8.966;2023-11-21T08:47:27;2.23;;;1.10;;
23088;SDS011;11713;48.506;8.966;2023-11-21T08:49:53;1.80;;;1.50;;
23088;SDS011;11713;48.506;8.966;2023-11-21T08:52:19;4.43;;;1.40;;
23088;SDS011;11713;48.506;8.966;2023-11-21T08:54:51;1.57;;;1.10;;
23088;SDS011;11713;48.506;8.966;2023-11-21T08:57:24;1.87;;;1.20;;
23088;SDS011;11713;48.506;8.966;2023-11-21T08:59:50;1.33;;;1.03;;
23088;SDS011;11713;48.506;8.966;2023-11-21T09:02:21;1.30;;;1.20;;
23088;SDS011;11713;48.506;8.966;2023-11-21T09:04:48;1.77;;;1.40;;
23088;SDS011;11713;48.506;8.966;2023-11-21T09:07:16;2.37;;;1.30;;
23088;SDS011;11713;48.506;8.966;2023-11-21T09:09:41;2.40;;;1.30;;
23088;SDS011;11713;48.506;8.966;2023-11-21T09:12:07;1.37;;;1.27;;
23088;SDS011;11713;48.506;8.966;2023-11-21T09:14:37;1.40;;;1.00;;
23088;SDS011;11713;48.506;8.966;2023-11-21T09:17:04;1.40;;;0.97;;
23088;SDS011;11713;48.506;8.966;2023-11-21T09:19:39;3.00;;;1.03;;
23088;SDS011;11713;48.506;8.966;2023-11-21T09:22:06;2.23;;;1.20;;
23088;SDS011;11713;48.506;8.966;2023-11-21T09:24:32;2.23;;;1.50;;
23088;SDS011;11713;48.506;8.966;2023-11-21T09:26:59;4.50;;;1.90;;
23088;SDS011;11713;48.506;8.966;2023-11-21T09:29:28;2.07;;;1.87;;
23088;SDS011;11713;48.506;8.966;2023-11-21T09:31:54;3.03;;;2.00;;
23088;SDS011;11713;48.506;8.966;2023-11-21T09:34:22;2.90;;;1.93;;
23088;SDS011;11713;48.506;8.966;2023-11-21T09:36:48;4.73;;;2.67;;
23088;SDS011;11713;48.506;8.966;2023-11-21T09:39:14;4.37;;;2.57;;
23088;SDS011;11713;48.506;8.966;2023-11-21T09:41:43;4.30;;;2.23;;
23088;SDS011;11713;48.506;8.966;2023-11-21T09:44:13;6.10;;;2.77;;
23088;SDS011;11713;48.506;8.966;2023-11-21T09:46:42;5.57;;;2.67;;
23088;SDS011;11713;48.506;8.966;2023-11-21T09:49:11;6.33;;;3.80;;
23088;SDS011;11713;48.506;8.966;2023-11-21T09:51:39;4.73;;;2.70;;
23088;SDS011;11713;48.506;8.966;2023-11-21T09:54:07;5.17;;;3.60;;
23088;SDS011;11713;48.506;8.966;2023-11-21T09:56:35;5.87;;;3.57;;
23088;SDS011;11713;48.506;8.966;2023-11-21T09:59:03;6.30;;;3.70;;
23088;SDS011;11713;48.506;8.966;2023-11-21T10:01:32;5.17;;;2.93;;
23088;SDS011;11713;48.506;8.966;2023-11-21T10:04:00;5.10;;;3.60;;
23088;SDS011;11713;48.506;8.966;2023-11-21T10:06:26;4.73;;;3.33;;
23088;SDS011;11713;48.506;8.966;2023-11-21T10:08:54;3.70;;;1.80;;
23088;SDS011;11713;48.506;8.966;2023-11-21T10:11:25;3.57;;;2.03;;
23088;SDS011;11713;48.506;8.966;2023-11-21T10:13:52;1.77;;;1.20;;
23088;SDS011;11713;48.506;8.966;2023-11-21T10:16:19;1.27;;;1.17;;
23088;SDS011;11713;48.506;8.966;2023-11-21T10:18:48;1.90;;;1.50;;
23088;SDS011;11713;48.506;8.966;2023-11-21T10:21:18;2.73;;;1.73;;
23088;SDS011;11713;48.506;8.966;2023-11-21T10:23:44;2.97;;;1.70;;
23088;SDS011;11713;48.506;8.966;2023-11-21T10:26:11;1.83;;;1.40;;
23088;SDS011;11713;48.506;8.966;2023-11-21T10:29:00;5.37;;;1.70;;
23088;SDS011;11713;48.506;8.966;2023-11-21T10:31:30;2.40;;;1.20;;
23088;SDS011;11713;48.506;8.966;2023-11-21T10:34:11;1.63;;;1.03;;
23088;SDS011;11713;48.506;8.966;2023-11-21T10:36:41;1.20;;;1.03;;
23088;SDS011;11713;48.506;8.966;2023-11-21T10:39:07;4.97;;;1.87;;
23088;SDS011;11713;48.506;8.966;2023-11-21T10:41:35;3.87;;;2.80;;
23088;SDS011;11713;48.506;8.966;2023-11-21T10:44:01;3.77;;;2.73;;
23088;SDS011;11713;48.506;8.966;2023-11-21T10:46:34;2.50;;;1.90;;
23088;SDS011;11713;48.506;8.966;2023-11-21T10:49:00;3.33;;;1.97;;
23088;SDS011;11713;48.506;8.966;2023-11-21T10:51:27;3.27;;;1.90;;
23088;SDS011;11713;48.506;8.966;2023-11-21T10:53:53;2.90;;;2.10;;
23088;SDS011;11713;48.506;8.966;2023-11-21T10:56:19;4.07;;;2.20;;
23088;SDS011;11713;48.506;8.966;2023-11-21T10:58:49;3.10;;;2.30;;
23088;SDS011;11713;48.506;8.966;2023-11-21T11:01:18;3.17;;;2.47;;
23088;SDS011;11713;48.506;8.966;2023-11-21T11:03:46;3.00;;;2.00;;
23088;SDS011;11713;48.506;8.966;2023-11-21T11:06:13;4.70;;;2.10;;
23088;SDS011;11713;48.506;8.966;2023-11-21T11:08:40;3.93;;;3.10;;
23088;SDS011;11713;48.506;8.966;2023-11-21T11:11:06;3.13;;;2.03;;
23088;SDS011;11713;48.506;8.966;2023-11-21T11:13:32;2.40;;;2.20;;
23088;SDS011;11713;48.506;8.966;2023-11-21T11:15:59;2.90;;;2.03;;
23088;SDS011;11713;48.506;8.966;2023-11-21T11:18:27;2.43;;;1.80;;
23088;SDS011;11713;48.506;8.966;2023-11-21T11:20:54;2.67;;;1.63;;
23088;SDS011;11713;48.506;8.966;2023-11-21T11:29:56;4.40;;;2.30;;
23088;SDS011;11713;48.506;8.966;2023-11-21T11:32:38;4.43;;;2.50;;
23088;SDS011;11713;48.506;8.966;2023-11-21T11:35:36;3.60;;;1.50;;
23088;SDS011;11713;48.506;8.966;2023-11-21T11:38:24;1.97;;;1.30;;
23088;SDS011;11713;48.506;8.966;2023-11-21T11:40:56;2.63;;;1.40;;
23088;SDS011;11713;48.506;8.966;2023-11-21T11:43:25;1.40;;;1.30;;
23088;SDS011;11713;48.506;8.966;2023-11-21T11:45:55;4.70;;;1.17;;
23088;SDS011;11713;48.506;8.966;2023-11-21T11:48:21;3.47;;;1.20;;
23088;SDS011;11713;48.506;8.966;2023-11-21T11:53:47;1.40;;;0.83;;
23088;SDS011;11713;48.506;8.966;2023-11-21T11:56:21;1.27;;;1.17;;
23088;SDS011;11713;48.506;8.966;2023-11-21T11:58:51;1.97;;;1.37;;
23088;SDS011;11713;48.506;8.966;2023-11-21T12:01:27;2.90;;;1.30;;
23088;SDS011;11713;48.506;8.966;2023-11-21T12:06:45;1.57;;;0.90;;
23088;SDS011;11713;48.506;8.966;2023-11-21T12:09:18;1.63;;;1.20;;
23088;SDS011;11713;48.506;8.966;2023-11-21T12:11:47;1.20;;;1.10;;
23088;SDS011;11713;48.506;8.966;2023-11-21T12:14:17;1.50;;;1.40;;
23088;SDS011;11713;48.506;8.966;2023-11-21T12:16:44;3.40;;;2.23;;
23088;SDS011;11713;48.506;8.966;2023-11-21T12:19:15;6.77;;;4.33;;
23088;SDS011;11713;48.506;8.966;2023-11-21T12:21:40;6.73;;;3.90;;
23088;SDS011;11713;48.506;8.966;2023-11-21T12:24:13;7.00;;;3.57;;
23088;SDS011;11713;48.506;8.966;2023-11-21T12:26:39;4.00;;;3.17;;
23088;SDS011;11713;48.506;8.966;2023-11-21T12:29:07;2.83;;;1.73;;
23088;SDS011;11713;48.506;8.966;2023-11-21T12:31:34;3.00;;;1.63;;
23088;SDS011;11713;48.506;8.966;2023-11-21T12:34:01;1.90;;;1.60;;
23088;SDS011;11713;48.506;8.966;2023-11-21T12:36:27;2.10;;;1.30;;
23088;SDS011;11713;48.506;8.966;2023-11-21T12:38:55;2.63;;;1.20;;
23088;SDS011;11713;48.506;8.966;2023-11-21T12:41:22;1.93;;;1.23;;
23088;SDS011;11713;48.506;8.966;2023-11-21T12:43:47;1.90;;;1.70;;
23088;SDS011;11713;48.506;8.966;2023-11-21T12:46:13;3.60;;;2.40;;
23088;SDS011;11713;48.506;8.966;2023-11-21T12:48:44;2.00;;;1.80;;
23088;SDS011;11713;48.506;8.966;2023-11-21T12:51:13;1.30;;;1.20;;
23088;SDS011;11713;48.506;8.966;2023-11-21T12:53:41;1.43;;;1.27;;
23088;SDS011;11713;48.506;8.966;2023-11-21T12:56:11;1.93;;;1.20;;
23088;SDS011;11713;48.506;8.966;2023-11-21T12:58:38;1.30;;;1.20;;
23088;SDS011;11713;48.506;8.966;2023-11-21T13:01:05;1.07;;;0.97;;
23088;SDS011;11713;48.506;8.966;2023-11-21T13:03:37;1.47;;;1.30;;
23088;SDS011;11713;48.506;8.966;2023-11-21T13:06:04;2.33;;;1.30;;
23088;SDS011;11713;48.506;8.966;2023-11-21T13:08:30;3.20;;;1.67;;
23088;SDS011;11713;48.506;8.966;2023-11-21T13:10:58;2.30;;;1.83;;
23088;SDS011;11713;48.506;8.966;2023-11-21T13:13:25;2.37;;;1.90;;
23088;SDS011;11713;48.506;8.966;2023-11-21T13:15:55;2.60;;;2.40;;
23088;SDS011;11713;48.506;8.966;2023-11-21T13:18:30;1.77;;;1.50;;
23088;SDS011;11713;48.506;8.966;2023-11-21T13:21:00;1.30;;;1.20;;
23088;SDS011;11713;48.506;8.966;2023-11-21T13:23:34;2.50;;;1.30;;
23088;SDS011;11713;48.506;8.966;2023-11-21T13:26:01;2.23;;;1.50;;
23088;SDS011;11713;48.506;8.966;2023-11-21T13:28:29;2.10;;;1.80;;
23088;SDS011;11713;48.506;8.966;2023-11-21T13:31:02;2.53;;;2.20;;
23088;SDS011;11713;48.506;8.966;2023-11-21T13:33:46;2.37;;;2.00;;
23088;SDS011;11713;48.506;8.966;2023-11-21T13:36:20;4.53;;;2.13;;
23088;SDS011;11713;48.506;8.966;2023-11-21T13:38:50;2.47;;;2.27;;
23088;SDS011;11713;48.506;8.966;2023-11-21T13:41:18;2.40;;;2.03;;
23088;SDS011;11713;48.506;8.966;2023-11-21T13:43:44;3.00;;;2.67;;
23088;SDS011;11713;48.506;8.966;2023-11-21T13:46:17;2.80;;;2.40;;
23088;SDS011;11713;48.506;8.966;2023-11-21T13:48:47;2.50;;;2.30;;
23088;SDS011;11713;48.506;8.966;2023-11-21T13:51:21;2.60;;;2.40;;
23088;SDS011;11713;48.506;8.966;2023-11-21T13:53:56;2.50;;;2.30;;
23088;SDS011;11713;48.506;8.966;2023-11-21T13:56:22;2.27;;;2.07;;
23088;SDS011;11713;48.506;8.966;2023-11-21T13:58:54;4.17;;;3.27;;
23088;SDS011;11713;48.506;8.966;2023-11-21T14:01:24;2.60;;;2.40;;
23088;SDS011;11713;48.506;8.966;2023-11-21T14:04:01;2.40;;;2.20;;
23088;SDS011;11713;48.506;8.966;2023-11-21T14:06:38;2.90;;;2.20;;
23088;SDS011;11713;48.506;8.966;2023-11-21T14:09:22;2.47;;;2.27;;
23088;SDS011;11713;48.506;8.966;2023-11-21T14:11:58;3.80;;;2.60;;
23088;SDS011;11713;48.506;8.966;2023-11-21T14:14:26;2.40;;;2.20;;
23088;SDS011;11713;48.506;8.966;2023-11-21T14:16:55;2.30;;;2.10;;
23088;SDS011;11713;48.506;8.966;2023-11-21T14:19:21;2.60;;;2.20;;
23088;SDS011;11713;48.506;8.966;2023-11-21T14:21:52;2.20;;;2.00;;
23088;SDS011;11713;48.506;8.966;2023-11-21T14:24:18;2.40;;;2.20;;
23088;SDS011;11713;48.506;8.966;2023-11-21T14:26:45;2.40;;;2.20;;
23088;SDS011;11713;48.506;8.966;2023-11-21T14:29:12;3.43;;;2.60;;
23088;SDS011;11713;48.506;8.966;2023-11-21T14:31:41;3.87;;;2.80;;
23088;SDS011;11713;48.506;8.966;2023-11-21T14:34:07;6.03;;;3.90;;
23088;SDS011;11713;48.506;8.966;2023-11-21T14:36:33;11.03;;;8.17;;
23088;SDS011;11713;48.506;8.966;2023-11-21T14:39:01;11.47;;;6.20;;
23088;SDS011;11713;48.506;8.966;2023-11-21T14:41:27;4.17;;;2.47;;
23088;SDS011;11713;48.506;8.966;2023-11-21T14:43:54;3.33;;;2.23;;
23088;SDS011;11713;48.506;8.966;2023-11-21T14:46:21;1.93;;;1.73;;
23088;SDS011;11713;48.506;8.966;2023-11-21T14:48:47;2.33;;;1.20;;
23088;SDS011;11713;48.506;8.966;2023-11-21T14:51:28;0.93;;;0.93;;
23088;SDS011;11713;48.506;8.966;2023-11-21T14:53:57;1.40;;;1.10;;
23088;SDS011;11713;48.506;8.966;2023-11-21T14:56:32;1.17;;;1.00;;
23088;SDS011;11713;48.506;8.966;2023-11-21T14:59:01;1.17;;;0.90;;
23088;SDS011;11713;48.506;8.966;2023-11-21T15:01:31;1.13;;;0.90;;
23088;SDS011;11713;48.506;8.966;2023-11-21T15:04:18;1.30;;;0.63;;
23088;SDS011;11713;48.506;8.966;2023-11-21T15:07:05;0.70;;;0.60;;
23088;SDS011;11713;48.506;8.966;2023-11-21T15:09:31;0.60;;;0.60;;